Craintown, Kentucky
Current Conditions -  °F | °C
As of 9:35 PM on Friday 24 Oct 2014 (Local Time) from KFGX Reporting Station
Clear Clear  
Wind Chill: 53°   Ceiling: Unl
Heat Index: 53°   Visibility: 10mi
Dew Point: 41°   Wind: 6mph
Humidity: 62%   Direction: 210°SSW
Pressure: 30.06"   Gusts: NA
Location:  38.436°N, 83.6931°W
Report Text: KFGX 250135Z AUTO 21005KT 10SM CLR 12/05 A3006 RMK AO2 T01180048
Loading
Personal Weather Stations






























Interactive Weather Map
Tropical Storm Tracking
New forecast layout! Learn more

10-Day Weather Forecast

Advertisements
Track Severe Weather on mobile